Time;durP1;ratioP1;P1;durP2;ratioP2;P2;SDS_P1;SDS_P2;PMS_P1;PMS_P2;Temp;Humidity;BMP_temperature;BMP_pressure;BME280_temperature;BME280_humidity;BME280_pressure;Samples;Min_cycle;Max_cycle;Signal;HPM_P1;HPM_P2
2021/05/01 00:00:41;;;;;;;5.77;1.33;;;;;;;9.31;81.49;95480.52;1792731;80;21128;-62
2021/05/01 00:03:10;;;;;;;3.57;1.10;;;;;;;9.34;82.63;95472.55;1792599;79;21136;-63
2021/05/01 00:05:38;;;;;;;4.23;1.40;;;;;;;9.37;81.89;95472.95;1792714;80;21155;-63
2021/05/01 00:08:07;;;;;;;2.63;1.17;;;;;;;9.42;81.52;95469.80;1792307;79;21140;-62
2021/05/01 00:10:34;;;;;;;3.33;1.50;;;;;;;9.47;81.51;95472.77;1792696;79;21140;-62
2021/05/01 00:13:02;;;;;;;3.80;1.20;;;;;;;9.51;81.37;95467.89;1792497;79;21301;-62
2021/05/01 00:15:29;;;;;;;5.83;4.17;;;;;;;9.53;81.18;95466.11;1792620;79;21531;-62
2021/05/01 00:17:57;;;;;;;15.40;8.00;;;;;;;9.48;81.11;95469.27;1792498;79;21133;-62
2021/05/01 00:20:24;;;;;;;2.80;1.60;;;;;;;9.38;81.71;95469.45;1792479;79;21559;-62
2021/05/01 00:22:51;;;;;;;6.80;1.43;;;;;;;9.39;81.91;95469.41;1758663;80;21579;-62
2021/05/01 00:25:19;;;;;;;4.30;1.47;;;;;;;9.36;81.40;95464.20;1792610;80;21684;-62
2021/05/01 00:27:46;;;;;;;3.17;1.30;;;;;;;9.34;81.44;95452.81;1792727;79;21156;-62
2021/05/01 00:30:15;;;;;;;2.23;1.80;;;;;;;9.33;81.19;95447.59;1792631;80;21184;-62
2021/05/01 00:32:43;;;;;;;2.57;1.30;;;;;;;9.34;81.13;95455.44;1792663;79;21577;-62
2021/05/01 00:35:11;;;;;;;3.50;1.70;;;;;;;9.39;81.17;95458.87;1792565;79;21132;-63
2021/05/01 00:37:39;;;;;;;1.50;1.20;;;;;;;9.47;81.02;95461.38;1792684;80;21551;-62
2021/05/01 00:40:09;;;;;;;4.50;1.17;;;;;;;9.34;80.80;95465.98;1764208;80;21666;-62
2021/05/01 00:42:37;;;;;;;1.20;1.10;;;;;;;9.20;80.71;95454.36;1792763;79;21148;-62
2021/05/01 00:45:06;;;;;;;6.23;2.77;;;;;;;9.15;81.49;95455.30;1792717;80;21160;-62
2021/05/01 00:47:34;;;;;;;2.60;1.50;;;;;;;9.17;81.46;95455.73;1792704;79;21113;-62
2021/05/01 00:50:04;;;;;;;3.83;1.40;;;;;;;9.15;81.23;95448.30;1758881;80;21569;-62
2021/05/01 00:52:34;;;;;;;2.37;1.60;;;;;;;9.20;81.10;95450.87;1792731;80;21562;-62
2021/05/01 00:55:06;;;;;;;3.30;1.60;;;;;;;9.08;81.24;95454.09;1792852;79;21093;-62
2021/05/01 00:57:37;;;;;;;3.67;1.60;;;;;;;9.12;81.21;95451.41;1792544;80;21581;-62
2021/05/01 01:00:30;;;;;;;10.07;3.07;;;;;;;9.08;81.37;95456.72;1792615;80;21120;-62
2021/05/01 01:02:41;;;;;;;5.47;1.70;;;;;;;9.08;81.43;95441.38;1789286;80;21144;-62
2021/05/01 01:05:10;;;;;;;3.07;1.70;;;;;;;9.04;82.06;95448.44;1792592;79;21151;-62
2021/05/01 01:07:38;;;;;;;3.67;1.47;;;;;;;8.99;81.76;95450.27;1792536;79;21152;-62
2021/05/01 01:10:06;;;;;;;2.67;1.70;;;;;;;9.03;81.86;95449.34;1792779;79;21105;-62
2021/05/01 01:12:34;;;;;;;1.90;1.33;;;;;;;9.03;82.07;95448.03;1792729;80;21112;-62
2021/05/01 01:15:04;;;;;;;2.13;1.40;;;;;;;8.94;81.92;95444.66;1792839;80;21136;-62
2021/05/01 01:17:32;;;;;;;1.77;1.60;;;;;;;8.82;81.52;95450.53;1763915;80;21160;-62
2021/05/01 01:20:00;;;;;;;2.57;1.53;;;;;;;8.84;81.67;95455.33;1792678;80;21609;-62
2021/05/01 01:22:27;;;;;;;4.80;1.30;;;;;;;8.88;81.67;95443.86;1792676;79;21582;-62
2021/05/01 01:24:55;;;;;;;4.00;1.70;;;;;;;8.90;81.42;95440.35;1792532;80;21160;-62
2021/05/01 01:27:22;;;;;;;1.17;0.97;;;;;;;8.80;81.15;95447.50;1792697;79;21571;-62
2021/05/01 01:29:50;;;;;;;1.70;1.13;;;;;;;8.70;82.14;95446.75;1792628;79;21128;-63
2021/05/01 01:32:17;;;;;;;10.10;4.80;;;;;;;8.52;81.67;95446.55;1792920;79;21141;-62
2021/05/01 01:34:45;;;;;;;10.47;5.07;;;;;;;8.45;82.15;95446.20;1792677;79;21582;-63
2021/05/01 01:37:13;;;;;;;3.57;1.70;;;;;;;8.44;83.23;95445.77;1792646;79;21153;-62
2021/05/01 01:39:41;;;;;;;2.20;1.60;;;;;;;8.45;82.75;95446.20;1792345;79;21129;-62
2021/05/01 01:42:11;;;;;;;3.90;1.40;;;;;;;8.48;83.23;95453.19;1792854;80;21559;-62
2021/05/01 01:44:39;;;;;;;3.83;1.63;;;;;;;8.45;82.99;95462.84;1792674;80;21614;-62
2021/05/01 01:47:07;;;;;;;6.83;2.03;;;;;;;8.52;82.81;95469.36;1792682;80;21136;-62
2021/05/01 01:49:40;;;;;;;3.50;1.60;;;;;;;8.61;82.78;95475.34;1792697;79;21575;-62
2021/05/01 01:52:08;;;;;;;2.17;1.20;;;;;;;8.66;82.73;95487.98;1792757;79;21589;-63
2021/05/01 01:54:36;;;;;;;14.20;6.27;;;;;;;8.82;82.98;95481.20;1792411;79;21109;-62
2021/05/01 01:57:06;;;;;;;22.33;9.47;;;;;;;8.91;83.87;95487.67;1792024;80;21168;-62
2021/05/01 01:59:34;;;;;;;13.40;5.00;;;;;;;8.94;83.09;95485.44;1790638;80;21279;-63
2021/05/01 02:02:02;;;;;;;4.63;2.40;;;;;;;9.00;82.64;95486.23;1790113;80;21570;-62
2021/05/01 02:04:30;;;;;;;4.77;2.67;;;;;;;9.10;82.58;95503.64;1790256;80;21139;-62
2021/05/01 02:06:58;;;;;;;2.73;1.77;;;;;;;9.20;82.74;95507.02;1790174;80;21635;-62
2021/05/01 02:09:26;;;;;;;9.87;4.73;;;;;;;9.24;82.74;95505.19;1789868;80;21611;-62
2021/05/01 02:11:54;;;;;;;17.07;7.23;;;;;;;9.28;82.64;95502.49;1790078;80;21129;-62
2021/05/01 02:14:21;;;;;;;4.93;1.50;;;;;;;9.33;82.82;95505.06;1790106;80;21567;-62
2021/05/01 02:16:50;;;;;;;5.37;2.00;;;;;;;9.40;82.55;95501.87;1790467;80;21104;-62
2021/05/01 02:19:18;;;;;;;3.73;1.57;;;;;;;9.44;82.68;95499.62;1790096;80;21148;-62
2021/05/01 02:21:45;;;;;;;17.83;5.40;;;;;;;9.50;83.15;95492.95;1790079;80;21124;-62
2021/05/01 02:24:14;;;;;;;24.70;9.80;;;;;;;9.57;82.95;95480.54;1790040;80;21141;-62
2021/05/01 02:26:42;;;;;;;15.77;6.53;;;;;;;9.51;82.52;95478.42;1790238;80;21569;-62
2021/05/01 02:29:10;;;;;;;9.43;4.60;;;;;;;9.56;82.88;95477.04;1789877;80;21152;-62
2021/05/01 02:31:37;;;;;;;8.77;2.50;;;;;;;9.67;83.07;95473.77;1790163;80;21157;-62
2021/05/01 02:34:05;;;;;;;3.10;1.70;;;;;;;9.69;83.30;95473.75;1790133;80;21125;-62
2021/05/01 02:36:33;;;;;;;10.27;4.00;;;;;;;9.75;83.18;95475.84;1790018;80;21164;-62
2021/05/01 02:39:01;;;;;;;4.87;3.40;;;;;;;9.78;84.02;95477.98;1789931;80;21144;-62
2021/05/01 02:41:29;;;;;;;8.17;3.70;;;;;;;9.82;83.54;95488.90;1790254;80;21113;-63
2021/05/01 02:43:57;;;;;;;14.10;3.90;;;;;;;9.82;83.59;95481.86;1790195;80;21558;-62
2021/05/01 02:46:25;;;;;;;3.60;2.40;;;;;;;9.87;83.63;95482.64;1790075;80;21168;-62
2021/05/01 02:48:53;;;;;;;7.43;2.10;;;;;;;9.93;83.34;95481.23;1789911;80;21156;-62
2021/05/01 02:51:21;;;;;;;3.30;2.00;;;;;;;9.97;83.11;95482.90;1790136;80;21175;-62
2021/05/01 02:53:49;;;;;;;7.70;3.03;;;;;;;10.03;82.99;95483.69;1790116;80;21169;-62
2021/05/01 02:56:17;;;;;;;11.47;4.50;;;;;;;10.02;83.57;95481.50;1790265;80;21151;-62
2021/05/01 02:58:44;;;;;;;15.53;6.63;;;;;;;10.08;84.16;95471.28;1792008;80;21148;-62
2021/05/01 03:01:12;;;;;;;6.67;2.57;;;;;;;10.09;84.49;95471.27;1792762;80;21151;-62
2021/05/01 03:03:40;;;;;;;4.27;2.40;;;;;;;10.13;84.46;95472.07;1792823;79;21588;-62
2021/05/01 03:06:08;;;;;;;5.13;3.07;;;;;;;10.21;84.18;95465.36;1792533;79;21626;-62
2021/05/01 03:08:35;;;;;;;9.60;4.83;;;;;;;10.20;84.42;95461.83;1792436;79;21128;-62
2021/05/01 03:11:02;;;;;;;7.67;3.57;;;;;;;10.16;83.99;95464.98;1792373;79;21262;-62
2021/05/01 03:13:30;;;;;;;4.83;3.07;;;;;;;10.19;84.23;95466.24;1792534;80;21263;-63
2021/05/01 03:15:58;;;;;;;11.60;4.07;;;;;;;10.25;84.58;95468.34;1792711;79;21151;-62
2021/05/01 03:18:26;;;;;;;6.73;3.67;;;;;;;10.35;84.19;95468.61;1792447;79;22146;-62
2021/05/01 03:20:54;;;;;;;9.23;3.67;;;;;;;10.40;84.47;95474.20;1792714;80;21155;-63
2021/05/01 03:23:21;;;;;;;10.90;3.90;;;;;;;10.43;84.17;95465.82;1792455;79;21113;-64
2021/05/01 03:25:49;;;;;;;11.13;3.73;;;;;;;10.44;83.86;95455.25;1792447;80;21168;-62
2021/05/01 03:28:17;;;;;;;10.47;6.00;;;;;;;10.54;83.90;95450.20;1793023;80;21136;-62
2021/05/01 03:30:45;;;;;;;7.60;4.00;;;;;;;10.54;83.77;95446.25;1792824;79;21149;-63
2021/05/01 03:33:12;;;;;;;7.47;2.87;;;;;;;10.54;83.90;95438.79;1792937;79;21131;-62
2021/05/01 03:35:40;;;;;;;9.23;2.67;;;;;;;10.63;84.07;95438.58;1792558;80;21171;-63
2021/05/01 03:38:07;;;;;;;3.20;2.10;;;;;;;10.71;84.07;95439.30;1792444;79;21140;-62
2021/05/01 03:40:35;;;;;;;5.37;1.90;;;;;;;10.82;83.78;95446.98;1792383;79;21156;-62
2021/05/01 03:43:02;;;;;;;4.97;2.10;;;;;;;10.92;83.51;95438.41;1792926;79;21148;-63
2021/05/01 03:45:30;;;;;;;5.10;2.63;;;;;;;10.96;83.82;95441.38;1792840;79;21128;-62
2021/05/01 03:47:58;;;;;;;3.23;1.67;;;;;;;11.05;83.58;95437.22;1792629;80;21135;-62
2021/05/01 03:50:25;;;;;;;2.90;1.80;;;;;;;11.09;83.93;95448.56;1792627;79;21145;-63
2021/05/01 03:52:52;;;;;;;5.00;2.90;;;;;;;11.07;83.88;95435.42;1792459;80;21129;-62
2021/05/01 03:55:19;;;;;;;22.30;9.23;;;;;;;11.12;83.69;95434.86;1792386;79;21144;-62
2021/05/01 03:57:50;;;;;;;6.53;2.73;;;;;;;11.10;83.72;95434.02;1790762;80;21610;-62
2021/05/01 04:00:20;;;;;;;4.17;2.60;;;;;;;11.15;83.47;95432.14;1787241;80;21157;-62
2021/05/01 04:02:50;;;;;;;15.90;5.97;;;;;;;11.19;83.30;95435.14;1787715;80;21164;-62
2021/05/01 04:05:20;;;;;;;9.57;3.47;;;;;;;11.23;83.42;95444.70;1787030;80;21148;-63
2021/05/01 04:07:49;;;;;;;8.73;3.30;;;;;;;11.29;83.25;95435.80;1787055;80;21136;-62
2021/05/01 04:10:17;;;;;;;4.97;2.00;;;;;;;11.36;83.08;95431.20;1787058;80;21582;-62
2021/05/01 04:12:45;;;;;;;4.87;2.10;;;;;;;11.38;83.56;95426.77;1787024;80;21117;-62
2021/05/01 04:15:14;;;;;;;5.00;2.03;;;;;;;11.25;83.25;95416.48;1787132;80;21129;-62
2021/05/01 04:17:43;;;;;;;3.83;2.63;;;;;;;11.30;83.43;95415.06;1787305;80;21161;-63
2021/05/01 04:20:12;;;;;;;8.20;4.23;;;;;;;11.38;83.47;95413.55;1787126;80;21566;-62
2021/05/01 04:22:40;;;;;;;5.50;3.40;;;;;;;11.39;83.29;95415.28;1787080;80;21149;-62
2021/05/01 04:25:09;;;;;;;13.93;8.70;;;;;;;11.42;83.54;95405.98;1787325;80;21141;-62
2021/05/01 04:27:36;;;;;;;10.07;5.43;;;;;;;11.46;83.54;95402.34;1787070;80;21144;-62
2021/05/01 04:30:12;;;;;;;11.50;5.73;;;;;;;11.56;83.62;95401.66;1787132;80;21152;-63
2021/05/01 04:32:40;;;;;;;7.80;3.83;;;;;;;11.67;83.66;95399.63;1787161;80;21121;-62
2021/05/01 04:35:10;;;;;;;11.17;5.80;;;;;;;11.77;83.45;95414.76;1786995;80;21165;-62
2021/05/01 04:37:38;;;;;;;5.80;2.73;;;;;;;11.74;82.92;95419.67;1787106;80;21160;-62
2021/05/01 04:40:08;;;;;;;7.87;3.70;;;;;;;11.82;83.15;95402.32;1787049;80;21125;-63
2021/05/01 04:42:37;;;;;;;9.10;5.20;;;;;;;11.94;83.15;95408.61;1787104;80;21156;-62
2021/05/01 04:45:06;;;;;;;10.83;5.83;;;;;;;12.00;82.82;95408.46;1787302;80;21157;-62
2021/05/01 04:47:34;;;;;;;8.77;5.17;;;;;;;12.03;82.70;95404.86;1787288;80;21140;-62
2021/05/01 04:50:03;;;;;;;7.47;4.00;;;;;;;12.12;82.98;95408.12;1787234;80;21128;-62
2021/05/01 04:52:31;;;;;;;9.27;4.60;;;;;;;12.26;82.52;95406.41;1787120;80;21140;-62
2021/05/01 04:55:04;;;;;;;4.57;3.33;;;;;;;12.35;82.19;95405.30;1787015;80;21133;-63
2021/05/01 04:57:28;;;;;;;6.77;4.73;;;;;;;12.43;81.94;95400.64;1786715;80;21169;-62
2021/05/01 04:59:56;;;;;;;6.13;3.33;;;;;;;12.56;81.96;95386.59;1787069;80;21168;-62
2021/05/01 05:02:23;;;;;;;9.23;7.70;;;;;;;12.70;81.66;95391.45;1786973;80;21132;-62
2021/05/01 05:04:51;;;;;;;6.33;5.63;;;;;;;12.80;81.33;95385.44;1787072;80;21141;-62
2021/05/01 05:07:18;;;;;;;5.90;3.50;;;;;;;12.92;81.00;95393.00;1787395;80;21167;-62
2021/05/01 05:09:45;;;;;;;5.50;3.20;;;;;;;12.99;80.36;95387.47;1787171;80;21132;-62
2021/05/01 05:12:13;;;;;;;3.83;2.83;;;;;;;13.05;80.05;95388.19;1787087;80;21168;-62
2021/05/01 05:14:40;;;;;;;6.47;3.40;;;;;;;13.12;79.99;95387.09;1787213;80;21101;-62
2021/05/01 05:17:08;;;;;;;9.10;3.50;;;;;;;13.15;79.88;95384.33;1787090;80;21109;-62
2021/05/01 05:19:36;;;;;;;6.97;2.77;;;;;;;13.20;79.50;95387.70;1787023;80;21637;-63
2021/05/01 05:22:04;;;;;;;4.93;2.83;;;;;;;13.22;79.02;95381.90;1787135;80;21579;-63
2021/05/01 05:24:32;;;;;;;5.63;2.40;;;;;;;13.28;78.91;95382.19;1786746;80;21505;-63
2021/05/01 05:26:59;;;;;;;5.63;2.83;;;;;;;13.35;78.74;95387.70;1787044;80;21136;-63
2021/05/01 05:29:27;;;;;;;9.10;4.37;;;;;;;13.41;78.62;95384.86;1787235;80;21136;-62
2021/05/01 05:31:55;;;;;;;5.67;3.10;;;;;;;13.46;78.34;95382.92;1786996;80;21128;-63
2021/05/01 05:34:22;;;;;;;6.10;3.20;;;;;;;13.52;78.02;95384.03;1787084;80;21144;-62
2021/05/01 05:36:50;;;;;;;6.43;3.10;;;;;;;13.59;78.16;95382.91;1787073;80;21133;-62
2021/05/01 05:39:18;;;;;;;6.87;3.47;;;;;;;13.67;78.01;95385.77;1787234;80;21165;-63
2021/05/01 05:41:45;;;;;;;5.70;3.70;;;;;;;13.74;78.04;95390.81;1787111;80;21589;-62
2021/05/01 05:44:13;;;;;;;6.17;4.57;;;;;;;13.80;77.94;95384.42;1786946;80;21191;-62
2021/05/01 05:46:40;;;;;;;6.13;3.63;;;;;;;13.87;77.28;95383.77;1756312;80;21700;-62
2021/05/01 05:49:08;;;;;;;4.93;3.73;;;;;;;13.93;76.33;95379.55;1787031;80;21582;-62
2021/05/01 05:51:36;;;;;;;7.97;3.27;;;;;;;14.02;76.43;95379.24;1786970;80;21129;-62
2021/05/01 05:54:05;;;;;;;5.63;2.80;;;;;;;14.11;75.86;95380.69;1787043;80;21125;-62
2021/05/01 05:56:35;;;;;;;5.87;3.63;;;;;;;14.22;75.89;95393.12;1786978;80;21152;-62
2021/05/01 05:59:03;;;;;;;4.37;3.10;;;;;;;14.40;75.93;95389.79;1788475;80;21601;-62
2021/05/01 06:01:36;;;;;;;8.33;3.47;;;;;;;14.54;75.40;95388.00;1790233;80;21153;-63
2021/05/01 06:04:12;;;;;;;6.12;2.70;;;;;;;14.64;74.99;95384.08;1790225;80;21121;-62
2021/05/01 06:06:47;;;;;;;6.17;3.23;;;;;;;14.74;75.02;95382.37;1789867;80;21148;-62
2021/05/01 06:09:16;;;;;;;6.10;4.00;;;;;;;14.86;74.66;95386.75;1790099;80;21598;-62
2021/05/01 06:11:44;;;;;;;11.37;8.70;;;;;;;14.95;74.18;95377.58;1790193;80;21109;-62
2021/05/01 06:14:14;;;;;;;11.63;9.00;;;;;;;15.04;73.60;95383.84;1790011;80;21141;-63
2021/05/01 06:16:44;;;;;;;8.33;6.37;;;;;;;15.12;73.60;95375.13;1790160;80;21578;-62
2021/05/01 06:19:13;;;;;;;8.97;6.03;;;;;;;15.26;73.21;95374.55;1790020;80;21538;-62
2021/05/01 06:21:40;;;;;;;6.77;4.27;;;;;;;15.40;73.36;95377.14;1790085;80;21578;-62
2021/05/01 06:24:09;;;;;;;6.50;3.80;;;;;;;15.61;73.36;95372.72;1790015;80;21909;-62
2021/05/01 06:26:38;;;;;;;5.40;2.43;;;;;;;15.77;72.07;95361.41;1789894;80;21133;-62
2021/05/01 06:29:06;;;;;;;2.90;2.15;;;;;;;15.81;69.96;95366.12;1790167;80;21152;-62
2021/05/01 06:31:36;;;;;;;2.87;1.90;;;;;;;15.92;71.12;95370.97;1790327;80;21130;-62
2021/05/01 06:34:06;;;;;;;4.72;1.82;;;;;;;16.00;71.22;95371.49;1790190;80;21153;-63
2021/05/01 06:36:36;;;;;;;5.03;2.05;;;;;;;16.12;71.26;95377.62;1790571;80;21170;-62
2021/05/01 06:39:05;;;;;;;2.92;1.82;;;;;;;16.28;70.97;95375.61;1790279;80;21132;-63
2021/05/01 06:41:48;;;;;;;3.08;1.95;;;;;;;16.38;70.96;95384.47;1789745;80;21607;-62
2021/05/01 06:44:19;;;;;;;5.33;2.00;;;;;;;16.44;70.43;95373.53;1789776;80;21113;-63
2021/05/01 06:46:49;;;;;;;3.45;2.10;;;;;;;16.46;69.92;95373.47;1790071;80;21097;-62
2021/05/01 06:49:28;;;;;;;6.40;3.55;;;;;;;16.43;69.71;95387.80;1790167;80;21125;-62
2021/05/01 06:52:02;;;;;;;5.75;3.47;;;;;;;16.36;68.92;95400.12;1789928;80;21550;-63
2021/05/01 06:54:31;;;;;;;10.82;6.35;;;;;;;16.18;67.93;95405.79;1789985;80;21558;-62
2021/05/01 06:56:59;;;;;;;12.30;5.62;;;;;;;16.00;67.42;95412.30;1790115;80;21149;-62
2021/05/01 06:59:28;;;;;;;9.05;6.17;;;;;;;15.84;68.03;95416.53;1791527;80;21577;-62
2021/05/01 07:01:56;;;;;;;11.80;6.17;;;;;;;15.73;68.44;95414.33;1792493;80;21566;-62
2021/05/01 07:04:26;;;;;;;7.28;5.92;;;;;;;15.66;68.17;95418.60;1788648;80;21166;-62
2021/05/01 07:06:55;;;;;;;7.50;5.05;;;;;;;15.64;68.75;95415.13;1792533;79;21133;-62
2021/05/01 07:09:23;;;;;;;9.63;5.22;;;;;;;15.59;69.77;95417.98;1764060;80;21139;-63
2021/05/01 07:11:53;;;;;;;11.53;6.03;;;;;;;15.61;70.04;95425.44;1792603;80;21278;-63
2021/05/01 07:14:23;;;;;;;9.13;6.60;;;;;;;15.62;71.32;95427.63;1792618;80;21666;-62
2021/05/01 07:16:50;;;;;;;10.30;6.85;;;;;;;15.63;70.93;95431.56;1764060;80;21129;-63
2021/05/01 07:19:20;;;;;;;19.80;9.75;;;;;;;15.63;71.59;95427.57;1792922;79;21097;-63
2021/05/01 07:21:47;;;;;;;19.77;11.23;;;;;;;15.63;71.83;95429.38;1792648;79;21561;-63
2021/05/01 07:24:15;;;;;;;21.77;11.90;;;;;;;15.62;71.27;95433.80;1792297;80;21140;-62
2021/05/01 07:26:44;;;;;;;21.75;10.65;;;;;;;15.62;71.47;95433.80;1792519;80;21132;-62
2021/05/01 07:29:12;;;;;;;6.17;3.55;;;;;;;15.65;71.60;95430.15;1792532;80;21133;-63
2021/05/01 07:31:40;;;;;;;3.85;2.10;;;;;;;15.68;70.94;95431.38;1792541;79;21093;-62
2021/05/01 07:34:14;;;;;;;3.52;2.30;;;;;;;15.74;70.49;95425.83;1792500;79;21598;-62
2021/05/01 07:36:48;;;;;;;4.53;2.50;;;;;;;15.76;69.70;95419.98;1792440;80;21152;-62
2021/05/01 07:39:16;;;;;;;2.87;2.05;;;;;;;15.89;69.68;95411.88;1763852;80;21153;-62
2021/05/01 07:41:48;;;;;;;2.12;1.85;;;;;;;16.07;70.07;95395.58;1792603;79;21135;-62
2021/05/01 07:44:16;;;;;;;5.35;2.70;;;;;;;16.20;69.79;95386.59;1792798;79;21149;-62
2021/05/01 07:46:44;;;;;;;6.25;2.10;;;;;;;16.35;70.30;95379.26;1792612;80;21156;-63
2021/05/01 07:49:12;;;;;;;2.83;1.87;;;;;;;16.57;70.58;95380.50;1792582;79;21582;-63
2021/05/01 07:51:40;;;;;;;2.55;1.77;;;;;;;16.77;70.19;95377.39;1792356;80;21132;-62
2021/05/01 07:54:12;;;;;;;2.60;1.85;;;;;;;17.01;69.67;95379.39;1792223;80;21203;-62
2021/05/01 07:56:40;;;;;;;2.58;1.90;;;;;;;17.18;68.72;95381.27;1792402;80;21176;-62
2021/05/01 07:59:09;;;;;;;5.53;1.92;;;;;;;17.20;67.30;95381.59;1791559;79;21113;-62
2021/05/01 08:01:37;;;;;;;4.17;1.75;;;;;;;17.38;67.13;95377.64;1790177;80;21124;-62
2021/05/01 08:04:05;;;;;;;3.52;1.75;;;;;;;17.61;66.28;95388.03;1790093;80;21591;-62
2021/05/01 08:06:33;;;;;;;4.62;2.58;;;;;;;17.84;65.49;95384.72;1790254;80;21132;-62
2021/05/01 08:09:01;;;;;;;3.55;2.50;;;;;;;18.04;64.41;95387.72;1790190;80;21113;-62
2021/05/01 08:11:28;;;;;;;5.95;2.27;;;;;;;18.11;63.93;95387.31;1790083;80;21140;-63
2021/05/01 08:13:56;;;;;;;5.47;2.30;;;;;;;18.14;63.57;95388.97;1789984;80;21122;-62
2021/05/01 08:16:23;;;;;;;3.05;2.05;;;;;;;18.27;63.06;95385.19;1789915;80;21506;-63
2021/05/01 08:18:53;;;;;;;8.35;2.45;;;;;;;18.42;63.87;95380.85;1789917;80;21132;-62
2021/05/01 08:21:21;;;;;;;6.05;2.08;;;;;;;18.54;63.44;95377.53;1790000;80;21140;-63
2021/05/01 08:23:49;;;;;;;2.98;1.70;;;;;;;18.70;63.37;95369.58;1789963;80;21125;-62
2021/05/01 08:26:17;;;;;;;4.47;1.90;;;;;;;18.89;62.73;95364.97;1789857;80;21140;-62
2021/05/01 08:28:45;;;;;;;3.60;1.92;;;;;;;18.97;61.10;95352.03;1790205;80;21105;-63
2021/05/01 08:31:13;;;;;;;2.75;1.70;;;;;;;19.13;62.25;95353.39;1790112;80;21113;-62
2021/05/01 08:33:41;;;;;;;5.20;1.90;;;;;;;19.32;60.51;95353.20;1790076;80;21113;-63
2021/05/01 08:36:10;;;;;;;2.85;1.72;;;;;;;19.40;59.41;95339.39;1790165;80;21145;-63
2021/05/01 08:38:37;;;;;;;2.83;1.82;;;;;;;19.46;58.99;95327.87;1790073;80;21164;-63
2021/05/01 08:41:07;;;;;;;3.67;1.92;;;;;;;19.59;58.31;95325.83;1790085;80;21148;-63
2021/05/01 08:43:35;;;;;;;2.72;1.42;;;;;;;19.65;59.70;95338.38;1789940;80;21578;-63
2021/05/01 08:46:12;;;;;;;3.27;1.90;;;;;;;19.65;57.88;95331.69;1790085;80;21132;-63
2021/05/01 08:48:32;;;;;;;4.90;1.50;;;;;;;19.76;58.52;95328.41;1788611;80;21136;-63
2021/05/01 08:51:02;;;;;;;4.87;2.00;;;;;;;19.89;54.95;95336.57;1790113;80;21579;-63
2021/05/01 08:53:31;;;;;;;3.08;1.57;;;;;;;19.91;55.67;95336.02;1790085;80;21160;-63
2021/05/01 08:55:59;;;;;;;3.20;1.80;;;;;;;20.06;57.60;95340.45;1761995;80;21160;-63
2021/05/01 08:58:26;;;;;;;4.58;1.70;;;;;;;20.20;55.78;95338.75;1790292;80;21112;-63
2021/05/01 09:00:54;;;;;;;4.65;2.00;;;;;;;20.32;56.22;95332.64;1790113;80;21205;-62
2021/05/01 09:03:23;;;;;;;6.12;2.22;;;;;;;20.47;57.14;95330.84;1790176;80;21566;-63
2021/05/01 09:05:57;;;;;;;5.58;1.65;;;;;;;20.66;56.73;95323.88;1790330;80;21591;-63
2021/05/01 09:08:27;;;;;;;3.42;1.55;;;;;;;20.91;54.79;95324.53;1790268;80;21133;-63
2021/05/01 09:10:55;;;;;;;3.08;1.92;;;;;;;20.91;54.79;95324.53;1790103;80;21184;-63
2021/05/01 09:13:26;;;;;;;2.52;1.90;;;;;;;21.08;53.07;95318.09;1790155;80;21160;-63
2021/05/01 09:16:07;;;;;;;5.55;1.60;;;;;;;21.12;54.44;95324.51;1790309;80;21136;-63
2021/05/01 09:18:53;;;;;;;4.87;2.10;;;;;;;21.15;53.76;95324.30;1790403;80;21144;-63
2021/05/01 09:21:26;;;;;;;4.92;1.60;;;;;;;21.47;53.72;95313.33;1790059;80;21185;-63
2021/05/01 09:23:54;;;;;;;4.50;1.70;;;;;;;21.58;51.96;95320.18;1762527;80;21159;-63
2021/05/01 09:26:39;;;;;;;2.22;1.60;;;;;;;21.55;52.45;95327.10;1790289;80;21101;-63
2021/05/01 09:29:10;;;;;;;2.83;1.80;;;;;;;21.74;54.37;95322.70;1789598;80;21129;-63
2021/05/01 09:31:46;;;;;;;5.15;2.17;;;;;;;21.74;51.93;95332.58;1762003;80;21570;-63
2021/05/01 09:34:14;;;;;;;4.53;1.70;;;;;;;21.51;52.33;95329.59;1790107;80;21572;-63
2021/05/01 09:36:43;;;;;;;5.58;2.50;;;;;;;21.23;51.89;95326.98;1761755;80;21140;-63
2021/05/01 09:39:17;;;;;;;5.28;1.67;;;;;;;21.07;51.82;95331.14;1762033;80;21144;-63
2021/05/01 09:41:46;;;;;;;6.35;1.92;;;;;;;21.01;51.96;95331.52;1789650;80;21137;-63
2021/05/01 09:44:18;;;;;;;4.85;1.95;;;;;;;21.05;52.04;95333.91;1790023;80;21145;-63
2021/05/01 09:46:50;;;;;;;5.72;2.25;;;;;;;21.06;52.88;95335.62;1790181;80;21515;-63
2021/05/01 09:49:31;;;;;;;4.17;1.72;;;;;;;21.15;53.31;95336.87;1790140;80;21124;-63
2021/05/01 09:52:10;;;;;;;4.72;1.98;;;;;;;21.29;52.69;95333.27;1790123;80;21121;-63
2021/05/01 09:54:43;;;;;;;5.97;1.80;;;;;;;21.38;51.66;95332.23;1790215;80;21145;-63
2021/05/01 09:57:20;;;;;;;5.37;1.90;;;;;;;21.43;52.36;95323.88;1789606;80;21137;-63
2021/05/01 09:59:58;;;;;;;3.10;2.10;;;;;;;21.36;53.06;95326.55;1789080;80;21583;-63
2021/05/01 10:02:33;;;;;;;4.12;1.92;;;;;;;21.31;52.82;95325.98;1787029;80;21140;-63
2021/05/01 10:05:12;;;;;;;5.47;1.95;;;;;;;21.31;53.02;95321.97;1787196;80;21504;-63
2021/05/01 10:07:44;;;;;;;5.22;3.02;;;;;;;21.22;52.49;95326.13;1756860;80;21717;-63
2021/05/01 10:10:14;;;;;;;6.87;2.52;;;;;;;21.15;53.02;95329.67;1787190;80;21137;-63
2021/05/01 10:12:43;;;;;;;8.13;2.25;;;;;;;20.94;53.04;95326.55;1786881;80;21105;-63
2021/05/01 10:15:24;;;;;;;3.30;1.95;;;;;;;20.64;52.93;95336.05;1787011;80;21175;-63
2021/05/01 10:17:53;;;;;;;;;;;;;;;20.32;54.17;95339.34;1789026;80;21184;-63
2021/05/01 10:20:22;;;;;;;3.80;1.82;;;;;;;20.06;54.06;95343.13;1757330;80;20119;-63
2021/05/01 10:22:50;;;;;;;4.22;2.40;;;;;;;19.92;54.79;95341.73;1787060;80;21160;-63
2021/05/01 10:25:26;;;;;;;3.47;2.90;;;;;;;19.79;56.13;95342.94;1786987;80;21109;-63
2021/05/01 10:28:08;;;;;;;5.22;2.83;;;;;;;19.60;57.39;95346.27;1787214;80;21579;-63
2021/05/01 10:33:33;;;;;;;7.92;2.25;;;;;;;19.62;59.10;95342.55;1780547;79;23045;-63
2021/05/01 10:36:29;;;;;;;8.03;2.22;;;;;;;19.57;59.23;95351.33;1754298;82;21094;-63
2021/05/01 10:39:06;;;;;;;4.90;2.52;;;;;;;19.58;59.48;95346.83;1724803;82;21177;-63
2021/05/01 10:41:35;;;;;;;4.72;2.60;;;;;;;19.64;61.11;95335.78;1754208;81;21189;-63
2021/05/01 10:44:07;;;;;;;4.10;2.30;;;;;;;19.74;62.38;95338.34;1754191;82;21148;-63
2021/05/01 10:46:40;;;;;;;6.20;2.58;;;;;;;19.90;61.50;95340.96;1754122;81;21536;-63
2021/05/01 10:49:10;;;;;;;3.20;2.30;;;;;;;19.96;60.54;95341.95;1754360;82;21439;-63
2021/05/01 10:51:47;;;;;;;5.17;2.33;;;;;;;19.97;60.12;95341.47;1754034;81;21615;-63
2021/05/01 10:54:21;;;;;;;2.67;2.10;;;;;;;19.86;58.78;95339.44;1753930;82;21094;-63
2021/05/01 10:56:55;;;;;;;3.65;2.37;;;;;;;19.80;59.39;95328.59;1753869;82;21142;-63
2021/05/01 10:59:34;;;;;;;7.30;2.20;;;;;;;19.83;59.16;95331.56;1754201;81;21158;-63
2021/05/01 11:02:01;;;;;;;5.45;2.40;;;;;;;19.92;58.46;95331.03;1753375;82;21157;-63
2021/05/01 11:04:33;;;;;;;4.58;2.80;;;;;;;20.14;59.67;95339.13;1754078;82;21611;-63
2021/05/01 11:07:19;;;;;;;5.30;2.60;;;;;;;20.37;59.25;95337.24;1753437;82;21587;-63
2021/05/01 11:09:49;;;;;;;5.08;2.70;;;;;;;20.58;59.52;95331.55;1754051;82;21532;-63
2021/05/01 11:12:19;;;;;;;6.25;2.65;;;;;;;20.63;58.26;95323.59;1753833;82;21181;-63
2021/05/01 11:15:06;;;;;;;5.75;2.67;;;;;;;20.62;59.22;95329.06;1753961;81;21567;-63
2021/05/01 11:17:39;;;;;;;6.33;2.35;;;;;;;20.56;59.20;95335.64;1753973;81;21560;-63
2021/05/01 11:20:14;;;;;;;3.47;1.85;;;;;;;20.48;57.85;95328.53;1753851;82;21105;-63
2021/05/01 11:22:46;;;;;;;4.95;2.17;;;;;;;20.40;58.37;95326.81;1753976;82;21094;-63
2021/05/01 11:25:17;;;;;;;5.62;2.05;;;;;;;20.47;58.27;95322.32;1724705;82;21121;-63
2021/05/01 11:27:51;;;;;;;5.25;2.10;;;;;;;20.58;58.66;95331.05;1753740;82;21130;-63
2021/05/01 11:30:23;;;;;;;5.12;2.02;;;;;;;20.66;58.94;95330.58;1754247;82;21128;-63
2021/05/01 11:32:53;;;;;;;6.50;2.10;;;;;;;20.69;58.08;95331.75;1754566;81;21157;-63
2021/05/01 11:35:24;;;;;;;3.75;2.20;;;;;;;20.74;58.37;95332.32;1754955;81;21140;-63
2021/05/01 11:37:56;;;;;;;6.67;3.08;;;;;;;20.88;57.07;95320.70;1754833;82;21148;-63
2021/05/01 11:40:27;;;;;;;4.58;2.70;;;;;;;20.98;56.10;95323.19;1754946;82;21098;-63
2021/05/01 11:42:57;;;;;;;7.85;3.75;;;;;;;21.01;56.13;95327.00;1754400;82;21688;-63
2021/05/01 11:45:52;;;;;;;6.08;3.45;;;;;;;20.98;54.40;95327.70;1754316;82;21181;-63
2021/05/01 11:48:36;;;;;;;7.58;3.95;;;;;;;20.87;56.46;95319.85;1754257;81;21118;-63